createdAt,value
2022-08-27T00:01:25.320Z,14.57
2022-08-27T00:03:56.335Z,13.77
2022-08-27T00:06:25.392Z,14.15
2022-08-27T00:08:53.909Z,15.18
2022-08-27T00:11:25.314Z,14.80
2022-08-27T00:13:53.183Z,15.40
2022-08-27T00:16:21.274Z,15.48
2022-08-27T00:18:48.891Z,16.42
2022-08-27T00:21:19.124Z,17.48
2022-08-27T00:23:47.272Z,18.70
2022-08-27T00:26:16.362Z,18.55
2022-08-27T00:28:44.165Z,17.20
2022-08-27T00:31:12.585Z,17.65
2022-08-27T00:33:41.114Z,17.88
2022-08-27T00:36:09.642Z,19.15
2022-08-27T00:38:38.602Z,19.85
2022-08-27T00:41:08.756Z,18.92
2022-08-27T00:43:57.988Z,20.45
2022-08-27T00:46:51.256Z,20.17
2022-08-27T00:49:30.224Z,20.75
2022-08-27T00:52:05.533Z,18.35
2022-08-27T00:54:33.654Z,19.20
2022-08-27T00:57:02.557Z,15.88
2022-08-27T00:59:32.799Z,11.60
2022-08-27T01:02:19.121Z,10.80
2022-08-27T01:05:05.686Z,9.70
2022-08-27T01:07:36.938Z,9.30
2022-08-27T01:10:07.746Z,8.57
2022-08-27T01:12:36.193Z,8.70
2022-08-27T01:15:10.069Z,9.10
2022-08-27T01:17:41.215Z,9.02
2022-08-27T01:20:19.250Z,8.32
2022-08-27T01:22:55.675Z,8.65
2022-08-27T01:25:25.268Z,8.45
2022-08-27T01:27:57.336Z,7.93
2022-08-27T01:30:24.938Z,8.63
2022-08-27T01:32:52.924Z,9.18
2022-08-27T01:35:23.348Z,9.40
2022-08-27T01:37:56.977Z,9.73
2022-08-27T01:40:25.727Z,10.20
2022-08-27T01:42:56.846Z,11.10
2022-08-27T01:45:28.114Z,10.70
2022-08-27T01:47:55.879Z,12.23
2022-08-27T01:50:27.162Z,12.70
2022-08-27T01:52:56.225Z,13.18
2022-08-27T01:55:26.351Z,14.15
2022-08-27T01:57:55.094Z,14.77
2022-08-27T02:00:26.904Z,13.30
2022-08-27T02:02:55.222Z,13.52
2022-08-27T02:05:23.259Z,14.32
2022-08-27T02:07:50.849Z,12.77
2022-08-27T02:10:25.567Z,12.10
2022-08-27T02:12:53.365Z,10.98
2022-08-27T02:15:21.213Z,10.95
2022-08-27T02:17:49.768Z,10.43
2022-08-27T02:20:18.633Z,9.63
2022-08-27T02:22:46.247Z,8.70
2022-08-27T02:25:15.481Z,8.65
2022-08-27T02:27:43.938Z,9.23
2022-08-27T02:30:14.889Z,9.20
2022-08-27T02:32:42.374Z,9.27
2022-08-27T02:35:09.981Z,8.93
2022-08-27T02:37:37.977Z,9.30
2022-08-27T02:40:07.737Z,8.55
2022-08-27T02:42:35.243Z,8.85
2022-08-27T02:45:02.903Z,8.60
2022-08-27T02:47:30.397Z,8.73
2022-08-27T02:49:57.933Z,8.10
2022-08-27T02:52:27.654Z,8.32
2022-08-27T02:54:56.206Z,8.82
2022-08-27T02:57:24.058Z,8.00
2022-08-27T02:59:52.970Z,8.07
2022-08-27T03:02:21.230Z,8.45
2022-08-27T03:04:49.703Z,8.35
2022-08-27T03:07:19.520Z,8.60
2022-08-27T03:09:47.001Z,8.98
2022-08-27T03:12:15.828Z,9.07
2022-08-27T03:14:43.430Z,8.27
2022-08-27T03:17:29.798Z,8.70
2022-08-27T03:19:57.277Z,9.40
2022-08-27T03:22:26.153Z,9.80
2022-08-27T03:24:55.520Z,8.88
2022-08-27T03:27:23.005Z,8.48
2022-08-27T03:29:50.460Z,9.40
2022-08-27T03:32:17.924Z,10.18
2022-08-27T03:34:45.402Z,11.00
2022-08-27T03:37:12.959Z,10.32
2022-08-27T03:39:40.553Z,9.75
2022-08-27T03:42:08.056Z,9.32
2022-08-27T03:44:35.577Z,9.63
2022-08-27T03:47:04.186Z,8.93
2022-08-27T03:49:32.405Z,9.25
2022-08-27T03:52:01.555Z,8.60
2022-08-27T03:54:29.037Z,9.15
2022-08-27T03:56:56.474Z,9.60
2022-08-27T03:59:23.950Z,8.90
2022-08-27T04:01:51.482Z,8.75
2022-08-27T04:04:19.067Z,8.95
2022-08-27T04:06:46.538Z,9.13
2022-08-27T04:09:14.077Z,8.80
2022-08-27T04:11:41.552Z,8.70
2022-08-27T04:14:17.368Z,9.18
2022-08-27T04:16:52.504Z,8.57
2022-08-27T04:19:22.844Z,9.85
2022-08-27T04:21:53.025Z,8.93
2022-08-27T04:24:20.565Z,9.10
2022-08-27T04:26:48.052Z,9.07
2022-08-27T04:29:15.954Z,9.65
2022-08-27T04:31:43.625Z,8.38
2022-08-27T04:34:11.230Z,7.45
2022-08-27T04:36:38.685Z,8.45
2022-08-27T04:39:06.374Z,8.68
2022-08-27T04:41:34.372Z,10.15
2022-08-27T04:44:07.690Z,10.18
2022-08-27T04:46:38.654Z,10.05
2022-08-27T04:49:14.603Z,10.10
2022-08-27T04:51:43.439Z,9.80
2022-08-27T04:54:11.013Z,19.63
2022-08-27T04:56:39.277Z,10.05
2022-08-27T04:59:10.204Z,9.43
2022-08-27T05:01:39.567Z,9.63
2022-08-27T05:04:08.171Z,9.98
2022-08-27T05:06:36.890Z,8.70
2022-08-27T05:09:05.659Z,8.63
2022-08-27T05:11:34.740Z,8.65
2022-08-27T05:14:04.531Z,8.40
2022-08-27T05:16:32.170Z,10.55
2022-08-27T05:19:00.033Z,10.18
2022-08-27T05:21:34.828Z,9.20
2022-08-27T05:24:03.930Z,9.57
2022-08-27T05:26:34.345Z,10.05
2022-08-27T05:29:02.965Z,9.48
2022-08-27T05:31:30.523Z,10.27
2022-08-27T05:33:59.889Z,10.27
2022-08-27T05:36:33.697Z,10.65
2022-08-27T05:39:03.480Z,10.82
2022-08-27T05:41:34.105Z,13.27
2022-08-27T05:44:24.048Z,12.40
2022-08-27T05:46:53.663Z,14.70
2022-08-27T05:49:21.589Z,13.98
2022-08-27T05:51:49.021Z,14.00
2022-08-27T05:54:19.584Z,13.10
2022-08-27T05:56:49.445Z,14.63
2022-08-27T05:59:35.604Z,13.90
2022-08-27T06:02:06.153Z,13.88
2022-08-27T06:04:34.304Z,13.55
2022-08-27T06:07:02.278Z,14.65
2022-08-27T06:09:30.327Z,13.07
2022-08-27T06:12:00.161Z,13.38
2022-08-27T06:14:28.510Z,12.57
2022-08-27T06:16:56.682Z,11.05
2022-08-27T06:19:24.382Z,11.88
2022-08-27T06:22:00.177Z,10.55
2022-08-27T06:24:37.138Z,11.23
2022-08-27T06:27:04.775Z,11.10
2022-08-27T06:29:35.064Z,10.60
2022-08-27T06:32:02.789Z,9.63
2022-08-27T06:34:30.250Z,8.77
2022-08-27T06:36:57.681Z,10.70
2022-08-27T06:39:25.125Z,8.98
2022-08-27T06:41:52.992Z,9.73
2022-08-27T06:44:24.385Z,9.60
2022-08-27T06:46:52.237Z,9.93
2022-08-27T06:49:19.705Z,9.55
2022-08-27T06:51:48.128Z,11.30
2022-08-27T06:54:17.203Z,10.73
2022-08-27T06:56:44.823Z,10.38
2022-08-27T06:59:15.624Z,10.70
2022-08-27T07:01:46.279Z,10.50
2022-08-27T07:04:19.686Z,9.85
2022-08-27T07:06:47.463Z,8.63
2022-08-27T07:09:15.339Z,7.10
2022-08-27T07:11:43.790Z,6.72
2022-08-27T07:14:12.996Z,6.85
2022-08-27T07:16:41.142Z,6.50
2022-08-27T07:19:08.632Z,6.20
2022-08-27T07:21:39.929Z,5.57
2022-08-27T07:24:09.137Z,4.75
2022-08-27T07:26:39.843Z,4.75
2022-08-27T07:29:08.619Z,4.47
2022-08-27T07:31:36.535Z,3.90
2022-08-27T07:34:05.759Z,3.70
2022-08-27T07:36:35.275Z,3.88
2022-08-27T07:39:02.818Z,4.20
2022-08-27T07:41:32.164Z,3.83
2022-08-27T07:44:19.233Z,3.90
2022-08-27T07:46:48.728Z,4.20
2022-08-27T07:49:22.183Z,4.38
2022-08-27T07:51:50.851Z,4.18
2022-08-27T07:54:21.280Z,4.40
2022-08-27T07:56:55.097Z,4.97
2022-08-27T07:59:25.074Z,4.40
2022-08-27T08:01:55.244Z,4.63
2022-08-27T08:04:23.461Z,4.53
2022-08-27T08:06:51.699Z,4.75
2022-08-27T08:09:20.232Z,3.80
2022-08-27T08:11:47.986Z,4.03
2022-08-27T08:14:15.468Z,3.92
2022-08-27T08:16:43.267Z,4.55
2022-08-27T08:19:11.333Z,4.10
2022-08-27T08:21:38.874Z,3.65
2022-08-27T08:24:06.661Z,3.75
2022-08-27T08:26:34.372Z,4.57
2022-08-27T08:29:05.016Z,3.88
2022-08-27T08:31:32.970Z,3.90
2022-08-27T08:34:00.840Z,4.47
2022-08-27T08:36:28.345Z,4.57
2022-08-27T08:38:56.022Z,4.95
2022-08-27T08:41:38.494Z,4.97
2022-08-27T08:44:32.753Z,5.47
2022-08-27T08:47:05.942Z,5.35
2022-08-27T08:49:57.696Z,5.40
2022-08-27T08:52:31.369Z,5.82
2022-08-27T08:55:31.708Z,5.07
2022-08-27T08:58:17.253Z,4.90
2022-08-27T09:00:48.892Z,5.07
2022-08-27T09:03:17.018Z,4.97
2022-08-27T09:05:53.743Z,4.80
2022-08-27T09:08:41.114Z,4.18
2022-08-27T09:11:25.924Z,4.38
2022-08-27T09:13:59.843Z,4.65
2022-08-27T09:16:28.149Z,5.50
2022-08-27T09:18:55.892Z,6.00
2022-08-27T09:21:32.614Z,4.57
2022-08-27T09:24:32.715Z,4.28
2022-08-27T09:27:00.444Z,4.50
2022-08-27T09:29:29.604Z,4.68
2022-08-27T09:32:04.065Z,5.45
2022-08-27T09:34:40.696Z,6.28
2022-08-27T09:37:34.250Z,4.63
2022-08-27T09:40:25.877Z,4.70
2022-08-27T09:42:57.454Z,4.97
2022-08-27T09:45:27.808Z,3.83
2022-08-27T09:48:04.472Z,3.88
2022-08-27T09:50:56.053Z,4.13
2022-08-27T09:53:44.957Z,4.18
2022-08-27T09:56:31.654Z,4.18
2022-08-27T09:59:11.061Z,6.57
2022-08-27T10:02:04.580Z,5.32
2022-08-27T10:04:51.044Z,6.68
2022-08-27T10:07:29.197Z,6.10
2022-08-27T10:10:11.355Z,5.07
2022-08-27T10:12:59.123Z,4.68
2022-08-27T10:15:41.867Z,4.35
2022-08-27T10:18:34.668Z,3.15
2022-08-27T10:21:21.059Z,2.55
2022-08-27T10:24:11.655Z,2.50
2022-08-27T10:27:00.866Z,3.25
2022-08-27T10:29:50.078Z,3.55
2022-08-27T10:32:18.071Z,3.30
2022-08-27T10:35:03.352Z,3.38
2022-08-27T10:38:02.970Z,3.45
2022-08-27T10:40:57.594Z,3.80
2022-08-27T10:43:51.022Z,3.22
2022-08-27T10:46:50.626Z,4.45
2022-08-27T10:49:49.286Z,4.50
2022-08-27T10:52:29.266Z,5.43
2022-08-27T10:55:27.682Z,5.40
2022-08-27T10:58:13.671Z,5.35
2022-08-27T11:01:15.105Z,4.90
2022-08-27T11:03:56.582Z,5.10
2022-08-27T11:06:33.784Z,4.97
2022-08-27T11:09:16.754Z,4.95
2022-08-27T11:12:15.101Z,4.80
2022-08-27T11:14:57.473Z,4.68
2022-08-27T11:17:50.565Z,4.82
2022-08-27T11:20:36.031Z,5.88
2022-08-27T11:23:17.444Z,6.30
2022-08-27T11:26:02.372Z,6.65
2022-08-27T11:28:39.618Z,4.57
2022-08-27T11:31:16.183Z,3.13
2022-08-27T11:34:07.872Z,3.17
2022-08-27T11:36:53.296Z,2.60
2022-08-27T11:39:51.114Z,2.53
2022-08-27T11:42:51.739Z,1.92
2022-08-27T11:45:28.532Z,2.00
2022-08-27T11:47:59.178Z,2.55
2022-08-27T11:50:28.146Z,1.58
2022-08-27T11:53:02.401Z,2.22
2022-08-27T11:55:38.808Z,1.85
2022-08-27T11:58:18.381Z,2.33
2022-08-27T12:00:46.981Z,2.35
2022-08-27T12:03:28.804Z,2.33
2022-08-27T12:05:56.329Z,3.20
2022-08-27T12:08:29.728Z,2.92
2022-08-27T12:11:21.852Z,2.47
2022-08-27T12:14:04.527Z,2.72
2022-08-27T12:16:49.693Z,2.92
2022-08-27T12:19:35.775Z,2.35
2022-08-27T12:23:00.381Z,3.10
2022-08-27T12:25:34.173Z,1.95
2022-08-27T12:28:05.535Z,2.30
2022-08-27T12:30:39.258Z,2.70
2022-08-27T12:33:27.294Z,2.40
2022-08-27T12:35:57.920Z,2.25
2022-08-27T12:38:53.081Z,2.03
2022-08-27T12:41:32.109Z,2.30
2022-08-27T12:44:07.832Z,2.75
2022-08-27T12:46:54.870Z,3.05
2022-08-27T12:49:37.120Z,2.92
2022-08-27T12:52:42.090Z,3.22
2022-08-27T12:57:56.429Z,3.30
2022-08-27T13:00:26.655Z,2.88
2022-08-27T13:03:07.660Z,3.10
2022-08-27T13:05:41.226Z,3.20
2022-08-27T13:08:29.478Z,3.40
2022-08-27T13:11:07.007Z,3.05
2022-08-27T13:13:37.926Z,3.50
2022-08-27T13:16:06.385Z,3.95
2022-08-27T13:18:36.355Z,4.45
2022-08-27T13:21:23.856Z,3.90
2022-08-27T13:23:59.469Z,3.85
2022-08-27T13:26:34.033Z,3.90
2022-08-27T13:29:03.690Z,3.97
2022-08-27T13:31:32.956Z,4.15
2022-08-27T13:34:01.159Z,4.00
2022-08-27T13:36:35.896Z,4.25
2022-08-27T13:39:06.235Z,3.95
2022-08-27T13:41:37.077Z,3.80
2022-08-27T13:44:14.538Z,3.67
2022-08-27T13:46:51.018Z,4.40
2022-08-27T13:49:24.602Z,4.30
2022-08-27T13:52:17.865Z,4.65
2022-08-27T13:54:48.699Z,4.90
2022-08-27T13:57:31.338Z,4.57
2022-08-27T14:00:15.653Z,4.40
2022-08-27T14:02:54.166Z,4.80
2022-08-27T14:05:23.506Z,4.30
2022-08-27T14:07:54.471Z,5.15
2022-08-27T14:10:35.642Z,5.15
2022-08-27T14:13:19.920Z,4.55
2022-08-27T14:15:54.303Z,5.13
2022-08-27T14:18:57.294Z,5.47
2022-08-27T14:21:19.381Z,5.32
2022-08-27T14:23:47.090Z,5.30
2022-08-27T14:26:17.444Z,5.10
2022-08-27T14:28:46.462Z,5.78
2022-08-27T14:31:15.261Z,5.15
2022-08-27T14:33:42.971Z,4.93
2022-08-27T14:36:11.643Z,5.25
2022-08-27T14:38:44.231Z,4.80
2022-08-27T14:41:11.833Z,4.20
2022-08-27T14:43:39.383Z,4.25
2022-08-27T14:46:25.508Z,5.32
2022-08-27T14:48:54.817Z,5.28
2022-08-27T14:51:28.154Z,4.47
2022-08-27T14:53:56.864Z,7.80
2022-08-27T14:56:25.314Z,5.78
2022-08-27T14:58:53.815Z,5.63
2022-08-27T15:01:24.079Z,4.82
2022-08-27T15:03:52.185Z,4.13
2022-08-27T15:06:23.912Z,6.22
2022-08-27T15:08:51.654Z,6.07
2022-08-27T15:11:23.623Z,5.13
2022-08-27T15:13:52.790Z,5.93
2022-08-27T15:16:32.593Z,6.30
2022-08-27T15:19:01.487Z,5.25
2022-08-27T15:21:30.610Z,6.68
2022-08-27T15:24:02.769Z,5.90
2022-08-27T15:26:31.202Z,5.80
2022-08-27T15:29:01.755Z,6.22
2022-08-27T15:31:33.581Z,5.70
2022-08-27T15:34:01.170Z,4.97
2022-08-27T15:36:28.731Z,4.95
2022-08-27T15:38:56.344Z,4.60
2022-08-27T15:41:27.277Z,4.10
2022-08-27T15:43:56.906Z,4.55
2022-08-27T15:46:25.636Z,4.85
2022-08-27T15:48:53.465Z,4.60
2022-08-27T15:51:27.778Z,4.65
2022-08-27T15:53:55.908Z,4.80
2022-08-27T15:56:24.083Z,4.75
2022-08-27T15:58:51.977Z,5.25
2022-08-27T16:01:27.409Z,4.57
2022-08-27T16:03:56.085Z,5.07
2022-08-27T16:06:26.887Z,4.90
2022-08-27T16:08:54.621Z,4.05
2022-08-27T16:11:22.916Z,5.05
2022-08-27T16:13:51.651Z,4.35
2022-08-27T16:16:25.278Z,3.83
2022-08-27T16:18:52.958Z,3.95
2022-08-27T16:21:21.009Z,4.07
2022-08-27T16:23:49.271Z,3.70
2022-08-27T16:26:17.215Z,3.88
2022-08-27T16:28:44.943Z,3.97
2022-08-27T16:31:13.680Z,3.83
2022-08-27T16:33:42.901Z,4.50
2022-08-27T16:36:10.697Z,3.63
2022-08-27T16:38:38.263Z,3.65
2022-08-27T16:41:06.398Z,3.75
2022-08-27T16:43:34.395Z,4.18
2022-08-27T16:46:02.116Z,4.20
2022-08-27T16:48:48.252Z,4.70
2022-08-27T16:51:27.190Z,29.63
2022-08-27T16:53:54.791Z,6.85
2022-08-27T16:56:28.401Z,4.78
2022-08-27T16:58:56.581Z,9.50
2022-08-27T17:01:25.215Z,4.82
2022-08-27T17:04:09.640Z,3.97
2022-08-27T17:06:39.666Z,5.32
2022-08-27T17:09:07.449Z,4.38
2022-08-27T17:11:36.270Z,3.85
2022-08-27T17:14:04.539Z,4.10
2022-08-27T17:16:34.730Z,4.45
2022-08-27T17:19:05.420Z,3.95
2022-08-27T17:21:34.800Z,4.68
2022-08-27T17:24:02.851Z,4.43
2022-08-27T17:26:33.288Z,3.65
2022-08-27T17:29:00.970Z,3.83
2022-08-27T17:31:35.759Z,4.20
2022-08-27T17:34:07.041Z,4.00
2022-08-27T17:36:34.869Z,3.72
2022-08-27T17:39:03.123Z,4.03
2022-08-27T17:41:37.890Z,4.25
2022-08-27T17:44:27.156Z,4.15
2022-08-27T17:46:57.644Z,3.90
2022-08-27T17:49:26.747Z,3.90
2022-08-27T17:52:02.242Z,4.78
2022-08-27T17:54:40.640Z,4.28
2022-08-27T17:57:21.078Z,5.07
2022-08-27T17:59:49.817Z,4.97
2022-08-27T18:02:25.110Z,5.22
2022-08-27T18:04:53.956Z,5.90
2022-08-27T18:07:22.209Z,7.38
2022-08-27T18:09:50.466Z,7.70
2022-08-27T18:12:24.249Z,9.60
2022-08-27T18:15:03.466Z,7.97
2022-08-27T18:17:31.542Z,7.00
2022-08-27T18:19:59.318Z,7.65
2022-08-27T18:22:27.831Z,7.85
2022-08-27T18:25:00.336Z,8.43
2022-08-27T18:27:33.058Z,7.97
2022-08-27T18:30:01.818Z,8.00
2022-08-27T18:32:29.511Z,8.00
2022-08-27T18:35:00.455Z,8.43
2022-08-27T18:37:28.123Z,8.70
2022-08-27T18:39:55.700Z,8.75
2022-08-27T18:42:23.465Z,10.50
2022-08-27T18:44:51.131Z,11.00
2022-08-27T18:47:18.734Z,10.90
2022-08-27T18:49:46.449Z,11.13
2022-08-27T18:52:14.026Z,11.55
2022-08-27T18:54:42.911Z,12.05
2022-08-27T18:57:11.300Z,10.65
2022-08-27T18:59:41.067Z,9.63
2022-08-27T19:02:17.379Z,9.50
2022-08-27T19:04:47.141Z,9.40
2022-08-27T19:07:22.476Z,10.80
2022-08-27T19:09:52.410Z,11.18
2022-08-27T19:12:26.111Z,11.45
2022-08-27T19:14:53.699Z,10.85
2022-08-27T19:17:34.456Z,11.88
2022-08-27T19:20:02.829Z,13.35
2022-08-27T19:22:31.743Z,13.43
2022-08-27T19:25:00.018Z,11.95
2022-08-27T19:27:30.047Z,12.90
2022-08-27T19:29:57.811Z,11.77
2022-08-27T19:32:25.790Z,11.05
2022-08-27T19:34:56.842Z,11.48
2022-08-27T19:37:29.144Z,10.38
2022-08-27T19:39:57.626Z,10.18
2022-08-27T19:42:25.396Z,10.68
2022-08-27T19:44:53.256Z,10.82
2022-08-27T19:47:25.777Z,11.38
2022-08-27T19:49:53.881Z,10.75
2022-08-27T19:52:22.053Z,10.20
2022-08-27T19:55:12.669Z,10.55
2022-08-27T19:57:37.667Z,9.82
2022-08-27T20:00:07.485Z,10.05
2022-08-27T20:02:37.245Z,9.13
2022-08-27T20:05:21.832Z,8.60
2022-08-27T20:07:52.065Z,7.65
2022-08-27T20:10:22.901Z,6.65
2022-08-27T20:12:53.620Z,5.65
2022-08-27T20:15:22.911Z,5.28
2022-08-27T20:17:53.039Z,4.78
2022-08-27T20:20:23.538Z,3.85
2022-08-27T20:22:51.765Z,3.40
2022-08-27T20:25:20.019Z,4.07
2022-08-27T20:27:47.831Z,3.50
2022-08-27T20:30:16.875Z,3.70
2022-08-27T20:32:47.425Z,3.17
2022-08-27T20:35:16.261Z,3.65
2022-08-27T20:37:46.225Z,3.33
2022-08-27T20:40:18.424Z,3.22
2022-08-27T20:42:46.104Z,3.55
2022-08-27T20:45:15.150Z,3.70
2022-08-27T20:47:44.783Z,3.67
2022-08-27T20:50:14.229Z,3.80
2022-08-27T20:52:42.771Z,3.92
2022-08-27T20:55:11.563Z,3.95
2022-08-27T20:58:02.081Z,3.80
2022-08-27T21:00:38.780Z,4.25
2022-08-27T21:03:11.659Z,3.63
2022-08-27T21:05:41.747Z,3.53
2022-08-27T21:08:09.443Z,4.10
2022-08-27T21:10:36.974Z,3.50
2022-08-27T21:13:07.337Z,3.80
2022-08-27T21:15:36.612Z,3.17
2022-08-27T21:18:04.273Z,3.97
2022-08-27T21:20:32.578Z,3.38
2022-08-27T21:23:01.096Z,3.53
2022-08-27T21:25:28.960Z,3.40
2022-08-27T21:27:57.791Z,3.55
2022-08-27T21:30:28.186Z,3.95
2022-08-27T21:32:56.673Z,3.03
2022-08-27T21:35:29.135Z,4.18
2022-08-27T21:40:26.456Z,3.88
2022-08-27T21:42:55.208Z,3.33
2022-08-27T21:45:24.200Z,3.20
2022-08-27T21:47:52.028Z,3.30
2022-08-27T21:50:20.654Z,3.03
2022-08-27T21:52:48.630Z,2.85
2022-08-27T21:55:17.119Z,2.70
2022-08-27T21:57:44.805Z,3.40
2022-08-27T22:00:37.919Z,3.83
2022-08-27T22:03:10.323Z,5.70
2022-08-27T22:05:40.467Z,6.32
2022-08-27T22:08:09.882Z,5.97
2022-08-27T22:10:38.996Z,5.18
2022-08-27T22:13:07.382Z,6.22
2022-08-27T22:15:35.190Z,6.40
2022-08-27T22:18:03.721Z,6.88
2022-08-27T22:20:31.653Z,6.65
2022-08-27T22:23:00.437Z,6.53
2022-08-27T22:25:28.456Z,6.63
2022-08-27T22:27:56.220Z,6.60
2022-08-27T22:30:23.865Z,8.40
2022-08-27T22:32:51.482Z,6.55
2022-08-27T22:35:20.555Z,7.15
2022-08-27T22:37:48.488Z,6.75
2022-08-27T22:40:21.441Z,6.10
2022-08-27T22:42:50.211Z,5.75
2022-08-27T22:45:18.957Z,5.72
2022-08-27T22:47:46.897Z,6.88
2022-08-27T22:50:14.855Z,6.10
2022-08-27T22:52:42.613Z,6.05
2022-08-27T22:55:12.671Z,4.32
2022-08-27T22:57:40.486Z,4.45
2022-08-27T23:00:12.285Z,4.10
2022-08-27T23:02:39.919Z,4.43
2022-08-27T23:05:09.133Z,4.43
2022-08-27T23:07:36.771Z,4.40
2022-08-27T23:10:06.840Z,4.32
2022-08-27T23:12:37.768Z,4.28
2022-08-27T23:15:08.279Z,5.25
2022-08-27T23:17:36.341Z,4.32
2022-08-27T23:20:06.663Z,4.47
2022-08-27T23:22:34.778Z,4.07
2022-08-27T23:25:20.987Z,4.10
2022-08-27T23:27:48.574Z,4.30
2022-08-27T23:30:17.121Z,4.57
2022-08-27T23:32:50.222Z,4.25
2022-08-27T23:35:22.660Z,4.25
2022-08-27T23:37:51.445Z,4.38
2022-08-27T23:40:19.971Z,4.40
2022-08-27T23:42:49.440Z,4.00
2022-08-27T23:45:23.286Z,4.50
2022-08-27T23:47:50.934Z,4.40
2022-08-27T23:50:19.203Z,4.65
2022-08-27T23:52:46.847Z,5.45
2022-08-27T23:55:15.834Z,4.68
2022-08-27T23:57:43.839Z,4.25
